createdAt,value
2022-11-20T00:00:22.948Z,11.38
2022-11-20T00:02:57.392Z,11.82
2022-11-20T00:05:31.468Z,11.00
2022-11-20T00:08:05.239Z,11.18
2022-11-20T00:10:39.311Z,11.75
2022-11-20T00:13:13.100Z,10.30
2022-11-20T00:15:52.397Z,12.00
2022-11-20T00:18:26.251Z,12.77
2022-11-20T00:21:00.296Z,11.77
2022-11-20T00:23:34.241Z,11.98
2022-11-20T00:26:10.843Z,13.55
2022-11-20T00:28:44.655Z,12.32
2022-11-20T00:31:24.381Z,12.10
2022-11-20T00:33:58.251Z,12.05
2022-11-20T00:36:33.126Z,12.77
2022-11-20T00:39:07.011Z,12.13
2022-11-20T00:41:40.821Z,12.65
2022-11-20T00:44:14.645Z,11.90
2022-11-20T01:05:48.446Z,13.20
2022-11-20T01:08:22.494Z,12.38
2022-11-20T01:10:56.328Z,11.90
2022-11-20T01:13:45.084Z,12.13
2022-11-20T01:40:55.495Z,13.35
2022-11-20T01:43:25.470Z,14.10
2022-11-20T02:29:26.825Z,11.23
2022-11-20T02:32:00.676Z,11.77
2022-11-20T02:34:34.477Z,11.25
2022-11-20T02:37:08.559Z,11.68
2022-11-20T02:39:42.335Z,10.75
2022-11-20T02:42:16.211Z,11.07
2022-11-20T02:44:55.391Z,11.57
2022-11-20T02:47:29.163Z,11.13
2022-11-20T02:50:03.288Z,12.13
2022-11-20T02:52:37.290Z,10.93
2022-11-20T02:55:12.434Z,11.63
2022-11-20T02:58:06.104Z,10.88
2022-11-20T03:11:33.912Z,14.38
2022-11-20T03:38:14.714Z,11.38
2022-11-20T03:40:54.141Z,10.70
2022-11-20T03:43:28.351Z,11.68
2022-11-20T03:46:02.229Z,11.10
2022-11-20T03:48:36.144Z,10.75
2022-11-20T03:51:16.664Z,12.20
2022-11-20T03:53:51.464Z,11.55
2022-11-20T03:56:31.852Z,11.02
2022-11-20T03:59:05.766Z,11.70
2022-11-20T04:01:41.388Z,12.10
2022-11-20T04:04:18.528Z,12.43
2022-11-20T04:06:52.480Z,11.93
2022-11-20T04:09:28.173Z,11.50
2022-11-20T04:12:07.450Z,14.52
2022-11-20T04:14:41.240Z,12.48
2022-11-20T04:17:15.202Z,12.75
2022-11-20T04:19:49.222Z,11.35
2022-11-20T04:35:50.605Z,11.93
2022-11-20T04:44:09.280Z,10.30
2022-11-20T05:18:59.019Z,10.38
2022-11-20T05:21:39.520Z,10.10
2022-11-20T05:24:13.973Z,9.60
2022-11-20T05:26:54.063Z,9.43
2022-11-20T05:29:28.313Z,9.35
2022-11-20T05:32:03.594Z,8.38
2022-11-20T05:34:37.590Z,8.50
2022-11-20T05:37:24.326Z,9.50
2022-11-20T05:39:59.539Z,9.43
2022-11-20T05:42:39.983Z,10.93
2022-11-20T05:47:55.905Z,11.05
2022-11-20T05:50:29.913Z,10.63
2022-11-20T05:53:09.547Z,12.35
2022-11-20T05:55:43.550Z,12.43
2022-11-20T06:14:19.323Z,14.18
2022-11-20T08:41:32.038Z,13.38
2022-11-20T08:44:13.885Z,13.55
2022-11-20T08:57:20.154Z,14.43
2022-11-20T09:02:35.115Z,10.48
2022-11-20T09:05:04.378Z,10.55
2022-11-20T09:23:44.995Z,8.45
2022-11-20T09:39:51.429Z,7.22
2022-11-20T09:42:35.483Z,7.05
2022-11-20T09:45:28.248Z,6.32
2022-11-20T09:48:11.260Z,9.35
2022-11-20T10:12:34.032Z,10.02
2022-11-20T10:23:26.258Z,7.90
2022-11-20T10:26:02.523Z,8.25
2022-11-20T10:28:51.551Z,7.78
2022-11-20T10:31:36.648Z,7.45
2022-11-20T10:39:26.287Z,8.25
2022-11-20T10:42:12.360Z,7.95
2022-11-20T10:47:20.244Z,8.30
2022-11-20T10:49:56.021Z,7.95
2022-11-20T10:52:33.389Z,9.18
2022-11-20T10:55:53.217Z,7.63
2022-11-20T10:58:49.558Z,7.20
2022-11-20T11:01:29.146Z,7.35
2022-11-20T11:11:53.290Z,9.43
2022-11-20T11:35:14.290Z,8.85
2022-11-20T11:48:50.564Z,8.15
2022-11-20T12:10:53.841Z,9.15
2022-11-20T13:08:59.362Z,10.55
2022-11-20T13:11:35.671Z,11.60
2022-11-20T13:44:09.131Z,11.73
2022-11-20T15:26:29.414Z,13.82
2022-11-20T15:29:09.097Z,15.20
2022-11-20T15:37:06.163Z,13.55
2022-11-20T15:39:40.676Z,13.43
2022-11-20T15:47:28.326Z,14.00
2022-11-20T16:03:30.512Z,14.35
2022-11-20T16:06:12.142Z,15.20
2022-11-20T16:08:47.341Z,14.65
2022-11-20T16:14:26.462Z,15.52
2022-11-20T16:17:00.868Z,15.50
2022-11-20T16:19:35.119Z,15.18
2022-11-20T16:32:49.361Z,17.05
2022-11-20T16:35:26.537Z,15.23
2022-11-20T16:38:02.418Z,15.48
2022-11-20T16:40:47.512Z,17.52
2022-11-20T16:43:31.401Z,16.48
2022-11-20T17:10:30.988Z,14.20
2022-11-20T17:13:05.339Z,16.33
2022-11-20T17:15:39.614Z,15.07
2022-11-20T17:18:15.167Z,15.75
2022-11-20T17:20:46.448Z,15.38
2022-11-20T17:26:03.047Z,16.88
2022-11-20T17:28:44.483Z,15.10
2022-11-20T18:17:13.924Z,8.00
2022-11-20T18:20:14.135Z,7.00
2022-11-20T18:22:45.223Z,6.05
2022-11-20T18:25:19.312Z,6.93
2022-11-20T18:27:53.586Z,5.88
2022-11-20T18:30:28.384Z,7.75
2022-11-20T18:33:08.092Z,6.85
2022-11-20T18:35:44.128Z,6.82
2022-11-20T18:38:26.422Z,5.55
2022-11-20T18:41:03.858Z,6.00
2022-11-20T18:43:57.569Z,6.43
2022-11-20T18:47:14.705Z,5.55
2022-11-20T19:30:14.485Z,6.05
2022-11-20T20:18:47.664Z,11.02
2022-11-20T20:43:52.434Z,14.38
2022-11-20T20:54:34.091Z,12.73
2022-11-20T21:53:51.255Z,17.48
2022-11-20T22:45:50.678Z,22.42
2022-11-20T23:01:52.228Z,13.60
2022-11-20T23:12:22.086Z,16.13
